sensor_id;sensor_type;location;lat;lon;timestamp;P1;durP1;ratioP1;P2;durP2;ratioP2
14153;SDS011;7157;53.144;7.570;2023-04-24T00:08:31;2.13;;;0.98;;
14153;SDS011;7157;53.144;7.570;2023-04-24T00:18:36;1.85;;;0.60;;
14153;SDS011;7157;53.144;7.570;2023-04-24T00:28:40;1.13;;;0.60;;
14153;SDS011;7157;53.144;7.570;2023-04-24T00:38:43;1.67;;;0.80;;
14153;SDS011;7157;53.144;7.570;2023-04-24T00:48:50;4.15;;;0.90;;
14153;SDS011;7157;53.144;7.570;2023-04-24T00:58:54;3.38;;;1.40;;
14153;SDS011;7157;53.144;7.570;2023-04-24T01:08:59;2.50;;;1.30;;
14153;SDS011;7157;53.144;7.570;2023-04-24T01:19:04;2.65;;;1.58;;
14153;SDS011;7157;53.144;7.570;2023-04-24T01:29:09;3.78;;;2.05;;
14153;SDS011;7157;53.144;7.570;2023-04-24T01:39:12;3.53;;;2.03;;
14153;SDS011;7157;53.144;7.570;2023-04-24T01:49:18;5.30;;;2.95;;
14153;SDS011;7157;53.144;7.570;2023-04-24T01:59:21;6.55;;;3.33;;
14153;SDS011;7157;53.144;7.570;2023-04-24T02:09:28;6.75;;;3.35;;
14153;SDS011;7157;53.144;7.570;2023-04-24T02:19:31;5.50;;;3.03;;
14153;SDS011;7157;53.144;7.570;2023-04-24T02:29:35;7.45;;;4.30;;
14153;SDS011;7157;53.144;7.570;2023-04-24T02:39:38;6.88;;;3.97;;
14153;SDS011;7157;53.144;7.570;2023-04-24T02:49:43;7.30;;;4.68;;
14153;SDS011;7157;53.144;7.570;2023-04-24T02:59:46;7.53;;;4.45;;
14153;SDS011;7157;53.144;7.570;2023-04-24T03:09:51;9.77;;;5.47;;
14153;SDS011;7157;53.144;7.570;2023-04-24T03:19:53;7.45;;;4.25;;
14153;SDS011;7157;53.144;7.570;2023-04-24T03:30:00;8.70;;;4.25;;
14153;SDS011;7157;53.144;7.570;2023-04-24T03:40:07;6.32;;;3.75;;
14153;SDS011;7157;53.144;7.570;2023-04-24T03:50:17;4.93;;;3.10;;
14153;SDS011;7157;53.144;7.570;2023-04-24T04:00:21;5.45;;;3.40;;
14153;SDS011;7157;53.144;7.570;2023-04-24T04:10:35;4.63;;;2.78;;
14153;SDS011;7157;53.144;7.570;2023-04-24T04:20:38;5.75;;;3.25;;
14153;SDS011;7157;53.144;7.570;2023-04-24T04:30:56;7.32;;;3.92;;
14153;SDS011;7157;53.144;7.570;2023-04-24T04:41:00;6.85;;;3.80;;
14153;SDS011;7157;53.144;7.570;2023-04-24T04:51:04;8.07;;;4.47;;
14153;SDS011;7157;53.144;7.570;2023-04-24T05:01:08;6.10;;;3.55;;
14153;SDS011;7157;53.144;7.570;2023-04-24T05:11:13;6.70;;;4.43;;
14153;SDS011;7157;53.144;7.570;2023-04-24T05:21:21;9.32;;;5.07;;
14153;SDS011;7157;53.144;7.570;2023-04-24T05:31:36;6.78;;;4.05;;
14153;SDS011;7157;53.144;7.570;2023-04-24T05:41:44;6.30;;;3.58;;
14153;SDS011;7157;53.144;7.570;2023-04-24T05:51:53;4.88;;;3.05;;
14153;SDS011;7157;53.144;7.570;2023-04-24T06:02:10;4.32;;;2.38;;
14153;SDS011;7157;53.144;7.570;2023-04-24T06:12:28;4.30;;;2.60;;
14153;SDS011;7157;53.144;7.570;2023-04-24T06:22:34;4.20;;;2.40;;
14153;SDS011;7157;53.144;7.570;2023-04-24T06:32:39;3.40;;;2.10;;
14153;SDS011;7157;53.144;7.570;2023-04-24T06:42:43;5.40;;;2.75;;
14153;SDS011;7157;53.144;7.570;2023-04-24T06:52:51;4.63;;;3.17;;
14153;SDS011;7157;53.144;7.570;2023-04-24T07:02:58;5.20;;;2.90;;
14153;SDS011;7157;53.144;7.570;2023-04-24T07:13:14;5.37;;;2.33;;
14153;SDS011;7157;53.144;7.570;2023-04-24T07:23:41;2.67;;;1.50;;
14153;SDS011;7157;53.144;7.570;2023-04-24T07:43:59;2.63;;;1.23;;
14153;SDS011;7157;53.144;7.570;2023-04-24T07:54:05;2.70;;;1.40;;
14153;SDS011;7157;53.144;7.570;2023-04-24T08:04:08;4.07;;;2.33;;
14153;SDS011;7157;53.144;7.570;2023-04-24T08:14:13;5.45;;;2.97;;
14153;SDS011;7157;53.144;7.570;2023-04-24T08:24:16;7.97;;;4.13;;
14153;SDS011;7157;53.144;7.570;2023-04-24T08:34:20;8.35;;;4.65;;
14153;SDS011;7157;53.144;7.570;2023-04-24T08:44:22;9.68;;;4.93;;
14153;SDS011;7157;53.144;7.570;2023-04-24T08:54:27;10.63;;;5.28;;
14153;SDS011;7157;53.144;7.570;2023-04-24T09:04:31;10.38;;;5.65;;
14153;SDS011;7157;53.144;7.570;2023-04-24T09:14:37;10.45;;;4.95;;
14153;SDS011;7157;53.144;7.570;2023-04-24T09:24:44;8.25;;;4.70;;
14153;SDS011;7157;53.144;7.570;2023-04-24T09:34:49;7.07;;;3.92;;
14153;SDS011;7157;53.144;7.570;2023-04-24T09:44:52;4.05;;;2.28;;
14153;SDS011;7157;53.144;7.570;2023-04-24T09:55:13;3.95;;;1.92;;
14153;SDS011;7157;53.144;7.570;2023-04-24T10:05:27;4.00;;;1.65;;
14153;SDS011;7157;53.144;7.570;2023-04-24T10:15:42;3.85;;;2.00;;
14153;SDS011;7157;53.144;7.570;2023-04-24T10:25:51;9.13;;;3.40;;
14153;SDS011;7157;53.144;7.570;2023-04-24T10:35:56;9.93;;;5.25;;
14153;SDS011;7157;53.144;7.570;2023-04-24T10:46:09;23.23;;;8.38;;
14153;SDS011;7157;53.144;7.570;2023-04-24T10:56:23;13.30;;;7.65;;
14153;SDS011;7157;53.144;7.570;2023-04-24T11:06:32;20.48;;;7.78;;
14153;SDS011;7157;53.144;7.570;2023-04-24T11:16:57;18.48;;;8.90;;
14153;SDS011;7157;53.144;7.570;2023-04-24T11:27:29;18.60;;;7.63;;
14153;SDS011;7157;53.144;7.570;2023-04-24T11:37:46;13.15;;;5.30;;
14153;SDS011;7157;53.144;7.570;2023-04-24T11:47:59;7.57;;;3.92;;
14153;SDS011;7157;53.144;7.570;2023-04-24T11:58:07;12.52;;;4.82;;
14153;SDS011;7157;53.144;7.570;2023-04-24T12:08:26;10.13;;;4.57;;
14153;SDS011;7157;53.144;7.570;2023-04-24T12:18:40;13.82;;;3.90;;
14153;SDS011;7157;53.144;7.570;2023-04-24T12:28:51;8.82;;;3.80;;
14153;SDS011;7157;53.144;7.570;2023-04-24T12:39:05;8.13;;;3.20;;
14153;SDS011;7157;53.144;7.570;2023-04-24T12:49:18;4.95;;;2.08;;
14153;SDS011;7157;53.144;7.570;2023-04-24T12:59:25;10.75;;;2.28;;
14153;SDS011;7157;53.144;7.570;2023-04-24T13:09:33;6.22;;;2.35;;
14153;SDS011;7157;53.144;7.570;2023-04-24T13:19:39;7.22;;;2.97;;
14153;SDS011;7157;53.144;7.570;2023-04-24T13:29:42;9.40;;;3.13;;
14153;SDS011;7157;53.144;7.570;2023-04-24T13:39:47;5.28;;;2.20;;
14153;SDS011;7157;53.144;7.570;2023-04-24T13:49:49;5.38;;;2.42;;
14153;SDS011;7157;53.144;7.570;2023-04-24T13:59:54;9.13;;;2.03;;
14153;SDS011;7157;53.144;7.570;2023-04-24T14:09:59;7.32;;;2.30;;
14153;SDS011;7157;53.144;7.570;2023-04-24T14:20:04;9.25;;;2.13;;
14153;SDS011;7157;53.144;7.570;2023-04-24T14:30:08;3.47;;;1.42;;
14153;SDS011;7157;53.144;7.570;2023-04-24T14:40:16;5.95;;;1.20;;
14153;SDS011;7157;53.144;7.570;2023-04-24T14:50:42;7.47;;;1.60;;
14153;SDS011;7157;53.144;7.570;2023-04-24T15:00:49;5.65;;;1.25;;
14153;SDS011;7157;53.144;7.570;2023-04-24T15:11:10;6.88;;;1.58;;
14153;SDS011;7157;53.144;7.570;2023-04-24T15:21:14;8.63;;;2.25;;
14153;SDS011;7157;53.144;7.570;2023-04-24T15:31:17;2.95;;;1.30;;
14153;SDS011;7157;53.144;7.570;2023-04-24T15:41:21;3.90;;;1.40;;
14153;SDS011;7157;53.144;7.570;2023-04-24T15:51:24;6.43;;;1.50;;
14153;SDS011;7157;53.144;7.570;2023-04-24T16:01:29;3.80;;;1.30;;
14153;SDS011;7157;53.144;7.570;2023-04-24T16:11:32;3.75;;;1.38;;
14153;SDS011;7157;53.144;7.570;2023-04-24T16:21:38;5.10;;;1.42;;
14153;SDS011;7157;53.144;7.570;2023-04-24T16:31:40;4.75;;;1.48;;
14153;SDS011;7157;53.144;7.570;2023-04-24T16:41:44;7.05;;;2.97;;
14153;SDS011;7157;53.144;7.570;2023-04-24T16:51:49;5.80;;;1.90;;
14153;SDS011;7157;53.144;7.570;2023-04-24T17:01:54;9.73;;;2.22;;
14153;SDS011;7157;53.144;7.570;2023-04-24T17:11:57;6.82;;;1.80;;
14153;SDS011;7157;53.144;7.570;2023-04-24T17:22:01;3.85;;;1.77;;
14153;SDS011;7157;53.144;7.570;2023-04-24T17:32:06;8.45;;;2.35;;
14153;SDS011;7157;53.144;7.570;2023-04-24T17:42:11;6.22;;;2.72;;
14153;SDS011;7157;53.144;7.570;2023-04-24T17:52:13;5.05;;;2.38;;
14153;SDS011;7157;53.144;7.570;2023-04-24T18:02:19;6.03;;;2.10;;
14153;SDS011;7157;53.144;7.570;2023-04-24T18:12:22;7.05;;;3.65;;
14153;SDS011;7157;53.144;7.570;2023-04-24T18:22:26;7.57;;;2.25;;
14153;SDS011;7157;53.144;7.570;2023-04-24T18:32:29;5.75;;;2.25;;
14153;SDS011;7157;53.144;7.570;2023-04-24T18:42:34;4.65;;;1.58;;
14153;SDS011;7157;53.144;7.570;2023-04-24T18:52:37;3.55;;;1.75;;
14153;SDS011;7157;53.144;7.570;2023-04-24T19:02:41;6.72;;;2.33;;
14153;SDS011;7157;53.144;7.570;2023-04-24T19:12:44;4.95;;;1.60;;
14153;SDS011;7157;53.144;7.570;2023-04-24T19:22:51;3.80;;;1.52;;
14153;SDS011;7157;53.144;7.570;2023-04-24T19:32:53;4.55;;;2.10;;
14153;SDS011;7157;53.144;7.570;2023-04-24T19:42:59;9.55;;;2.20;;
14153;SDS011;7157;53.144;7.570;2023-04-24T19:53:02;3.40;;;1.60;;
14153;SDS011;7157;53.144;7.570;2023-04-24T20:03:08;5.10;;;2.08;;
14153;SDS011;7157;53.144;7.570;2023-04-24T20:13:30;7.00;;;2.08;;
14153;SDS011;7157;53.144;7.570;2023-04-24T20:23:35;5.45;;;2.63;;
14153;SDS011;7157;53.144;7.570;2023-04-24T20:33:38;5.53;;;2.05;;
14153;SDS011;7157;53.144;7.570;2023-04-24T20:43:43;8.02;;;2.38;;
14153;SDS011;7157;53.144;7.570;2023-04-24T20:53:46;5.82;;;2.35;;
14153;SDS011;7157;53.144;7.570;2023-04-24T21:03:51;7.03;;;2.30;;
14153;SDS011;7157;53.144;7.570;2023-04-24T21:13:54;5.10;;;2.47;;
14153;SDS011;7157;53.144;7.570;2023-04-24T21:23:58;8.15;;;2.83;;
14153;SDS011;7157;53.144;7.570;2023-04-24T21:34:04;6.53;;;2.33;;
14153;SDS011;7157;53.144;7.570;2023-04-24T21:44:08;7.10;;;2.92;;
14153;SDS011;7157;53.144;7.570;2023-04-24T21:54:11;5.00;;;2.45;;
14153;SDS011;7157;53.144;7.570;2023-04-24T22:04:15;19.60;;;2.80;;
14153;SDS011;7157;53.144;7.570;2023-04-24T22:14:18;16.88;;;3.20;;
14153;SDS011;7157;53.144;7.570;2023-04-24T22:24:22;19.13;;;3.38;;
14153;SDS011;7157;53.144;7.570;2023-04-24T22:34:25;14.70;;;3.03;;
14153;SDS011;7157;53.144;7.570;2023-04-24T22:44:30;25.58;;;3.63;;
14153;SDS011;7157;53.144;7.570;2023-04-24T22:54:33;21.30;;;3.42;;
14153;SDS011;7157;53.144;7.570;2023-04-24T23:04:37;20.60;;;2.90;;
14153;SDS011;7157;53.144;7.570;2023-04-24T23:14:40;20.63;;;3.10;;
14153;SDS011;7157;53.144;7.570;2023-04-24T23:24:44;28.30;;;3.78;;
14153;SDS011;7157;53.144;7.570;2023-04-24T23:34:47;16.30;;;2.78;;
14153;SDS011;7157;53.144;7.570;2023-04-24T23:44:51;19.50;;;3.10;;
14153;SDS011;7157;53.144;7.570;2023-04-24T23:54:54;16.10;;;4.15;;
